sensor_id;sensor_type;location;lat;lon;timestamp;P1;durP1;ratioP1;P2;durP2;ratioP2
70450;SDS011;58869;51.982;4.450;2023-11-18T00:02:00;18.56;;;18.55;;
70450;SDS011;58869;51.982;4.450;2023-11-18T00:04:26;18.38;;;18.38;;
70450;SDS011;58869;51.982;4.450;2023-11-18T00:06:52;18.25;;;18.25;;
70450;SDS011;58869;51.982;4.450;2023-11-18T00:09:19;18.28;;;18.28;;
70450;SDS011;58869;51.982;4.450;2023-11-18T00:11:45;17.99;;;17.99;;
70450;SDS011;58869;51.982;4.450;2023-11-18T00:14:11;17.94;;;17.92;;
70450;SDS011;58869;51.982;4.450;2023-11-18T00:16:36;17.68;;;17.68;;
70450;SDS011;58869;51.982;4.450;2023-11-18T00:19:02;18.63;;;18.63;;
70450;SDS011;58869;51.982;4.450;2023-11-18T00:21:30;19.55;;;19.55;;
70450;SDS011;58869;51.982;4.450;2023-11-18T00:23:56;20.89;;;20.89;;
70450;SDS011;58869;51.982;4.450;2023-11-18T00:26:21;23.52;;;23.52;;
70450;SDS011;58869;51.982;4.450;2023-11-18T00:28:47;26.69;;;26.69;;
70450;SDS011;58869;51.982;4.450;2023-11-18T00:31:13;27.20;;;27.20;;
70450;SDS011;58869;51.982;4.450;2023-11-18T00:33:39;26.62;;;26.62;;
70450;SDS011;58869;51.982;4.450;2023-11-18T00:36:08;23.98;;;23.98;;
70450;SDS011;58869;51.982;4.450;2023-11-18T00:38:34;21.38;;;21.38;;
70450;SDS011;58869;51.982;4.450;2023-11-18T00:40:59;19.17;;;19.16;;
70450;SDS011;58869;51.982;4.450;2023-11-18T00:43:25;17.85;;;17.85;;
70450;SDS011;58869;51.982;4.450;2023-11-18T00:45:51;16.73;;;16.73;;
70450;SDS011;58869;51.982;4.450;2023-11-18T00:48:16;17.19;;;17.19;;
70450;SDS011;58869;51.982;4.450;2023-11-18T00:50:42;17.00;;;17.00;;
70450;SDS011;58869;51.982;4.450;2023-11-18T00:53:07;17.31;;;17.31;;
70450;SDS011;58869;51.982;4.450;2023-11-18T00:55:33;17.16;;;17.16;;
70450;SDS011;58869;51.982;4.450;2023-11-18T00:57:59;17.77;;;17.65;;
70450;SDS011;58869;51.982;4.450;2023-11-18T01:00:25;17.19;;;17.13;;
70450;SDS011;58869;51.982;4.450;2023-11-18T01:02:51;17.23;;;17.23;;
70450;SDS011;58869;51.982;4.450;2023-11-18T01:05:18;18.16;;;18.10;;
70450;SDS011;58869;51.982;4.450;2023-11-18T01:07:45;17.80;;;17.79;;
70450;SDS011;58869;51.982;4.450;2023-11-18T01:54:02;19.36;;;19.36;;
70450;SDS011;58869;51.982;4.450;2023-11-18T01:56:57;19.30;;;19.30;;
70450;SDS011;58869;51.982;4.450;2023-11-18T02:02:31;20.58;;;20.58;;
70450;SDS011;58869;51.982;4.450;2023-11-18T02:05:04;20.36;;;20.36;;
70450;SDS011;58869;51.982;4.450;2023-11-18T02:07:37;20.82;;;20.80;;
70450;SDS011;58869;51.982;4.450;2023-11-18T02:10:06;20.92;;;20.92;;
70450;SDS011;58869;51.982;4.450;2023-11-18T02:12:49;20.78;;;20.78;;
70450;SDS011;58869;51.982;4.450;2023-11-18T02:18:14;20.16;;;20.15;;
70450;SDS011;58869;51.982;4.450;2023-11-18T02:20:42;19.83;;;19.81;;
70450;SDS011;58869;51.982;4.450;2023-11-18T02:23:29;20.10;;;20.10;;
70450;SDS011;58869;51.982;4.450;2023-11-18T02:25:56;20.44;;;20.41;;
70450;SDS011;58869;51.982;4.450;2023-11-18T02:28:29;20.10;;;20.08;;
70450;SDS011;58869;51.982;4.450;2023-11-18T02:31:16;19.64;;;19.59;;
70450;SDS011;58869;51.982;4.450;2023-11-18T02:34:08;19.36;;;19.36;;
70450;SDS011;58869;51.982;4.450;2023-11-18T02:36:44;18.98;;;18.98;;
70450;SDS011;58869;51.982;4.450;2023-11-18T02:39:14;19.13;;;19.12;;
70450;SDS011;58869;51.982;4.450;2023-11-18T02:41:51;18.61;;;18.61;;
70450;SDS011;58869;51.982;4.450;2023-11-18T02:44:18;19.11;;;19.09;;
70450;SDS011;58869;51.982;4.450;2023-11-18T02:46:45;18.75;;;18.73;;
70450;SDS011;58869;51.982;4.450;2023-11-18T02:49:10;18.51;;;18.51;;
70450;SDS011;58869;51.982;4.450;2023-11-18T02:51:37;17.65;;;17.65;;
70450;SDS011;58869;51.982;4.450;2023-11-18T02:54:05;17.62;;;17.62;;
70450;SDS011;58869;51.982;4.450;2023-11-18T02:56:36;18.01;;;18.01;;
70450;SDS011;58869;51.982;4.450;2023-11-18T02:59:02;17.97;;;17.97;;
70450;SDS011;58869;51.982;4.450;2023-11-18T03:01:30;18.95;;;18.93;;
70450;SDS011;58869;51.982;4.450;2023-11-18T03:03:59;18.88;;;18.87;;
70450;SDS011;58869;51.982;4.450;2023-11-18T03:06:25;20.18;;;20.15;;
70450;SDS011;58869;51.982;4.450;2023-11-18T03:08:51;20.34;;;20.31;;
70450;SDS011;58869;51.982;4.450;2023-11-18T03:11:20;18.68;;;18.68;;
70450;SDS011;58869;51.982;4.450;2023-11-18T03:13:45;16.69;;;16.69;;
70450;SDS011;58869;51.982;4.450;2023-11-18T03:16:11;15.34;;;15.34;;
70450;SDS011;58869;51.982;4.450;2023-11-18T03:18:41;15.51;;;15.51;;
70450;SDS011;58869;51.982;4.450;2023-11-18T03:21:13;14.67;;;14.65;;
70450;SDS011;58869;51.982;4.450;2023-11-18T03:23:40;14.10;;;14.09;;
70450;SDS011;58869;51.982;4.450;2023-11-18T03:26:06;14.00;;;14.00;;
70450;SDS011;58869;51.982;4.450;2023-11-18T03:28:33;14.35;;;14.34;;
70450;SDS011;58869;51.982;4.450;2023-11-18T03:30:58;14.32;;;14.31;;
70450;SDS011;58869;51.982;4.450;2023-11-18T03:33:24;14.60;;;14.60;;
70450;SDS011;58869;51.982;4.450;2023-11-18T03:35:50;14.11;;;14.11;;
70450;SDS011;58869;51.982;4.450;2023-11-18T03:38:15;15.04;;;15.04;;
70450;SDS011;58869;51.982;4.450;2023-11-18T03:40:47;14.63;;;14.62;;
70450;SDS011;58869;51.982;4.450;2023-11-18T03:43:12;14.20;;;14.19;;
70450;SDS011;58869;51.982;4.450;2023-11-18T03:45:39;13.95;;;13.93;;
70450;SDS011;58869;51.982;4.450;2023-11-18T03:48:05;13.88;;;13.88;;
70450;SDS011;58869;51.982;4.450;2023-11-18T03:50:31;13.90;;;13.90;;
70450;SDS011;58869;51.982;4.450;2023-11-18T03:52:57;14.81;;;14.79;;
70450;SDS011;58869;51.982;4.450;2023-11-18T03:55:23;15.41;;;15.41;;
70450;SDS011;58869;51.982;4.450;2023-11-18T03:57:51;15.37;;;15.37;;
70450;SDS011;58869;51.982;4.450;2023-11-18T04:00:17;15.48;;;15.48;;
70450;SDS011;58869;51.982;4.450;2023-11-18T04:02:43;16.35;;;16.35;;
70450;SDS011;58869;51.982;4.450;2023-11-18T04:05:11;16.50;;;16.50;;
70450;SDS011;58869;51.982;4.450;2023-11-18T04:07:37;16.56;;;16.56;;
70450;SDS011;58869;51.982;4.450;2023-11-18T04:10:03;16.91;;;16.91;;
70450;SDS011;58869;51.982;4.450;2023-11-18T04:12:31;16.59;;;16.58;;
70450;SDS011;58869;51.982;4.450;2023-11-18T04:14:57;16.27;;;16.27;;
70450;SDS011;58869;51.982;4.450;2023-11-18T04:17:22;16.98;;;16.98;;
70450;SDS011;58869;51.982;4.450;2023-11-18T04:19:48;16.81;;;16.81;;
70450;SDS011;58869;51.982;4.450;2023-11-18T04:22:13;17.48;;;17.48;;
70450;SDS011;58869;51.982;4.450;2023-11-18T04:24:39;17.50;;;17.50;;
70450;SDS011;58869;51.982;4.450;2023-11-18T04:27:04;17.06;;;17.05;;
70450;SDS011;58869;51.982;4.450;2023-11-18T04:29:30;16.53;;;16.52;;
70450;SDS011;58869;51.982;4.450;2023-11-18T04:31:55;16.45;;;16.45;;
70450;SDS011;58869;51.982;4.450;2023-11-18T04:34:21;16.57;;;16.57;;
70450;SDS011;58869;51.982;4.450;2023-11-18T04:36:46;16.46;;;16.46;;
70450;SDS011;58869;51.982;4.450;2023-11-18T04:39:12;16.30;;;16.28;;
70450;SDS011;58869;51.982;4.450;2023-11-18T04:41:37;15.64;;;15.61;;
70450;SDS011;58869;51.982;4.450;2023-11-18T04:44:03;16.42;;;16.42;;
70450;SDS011;58869;51.982;4.450;2023-11-18T04:46:28;16.17;;;16.17;;
70450;SDS011;58869;51.982;4.450;2023-11-18T04:48:54;15.92;;;15.92;;
70450;SDS011;58869;51.982;4.450;2023-11-18T04:51:20;15.61;;;15.61;;
70450;SDS011;58869;51.982;4.450;2023-11-18T04:53:47;15.04;;;15.04;;
70450;SDS011;58869;51.982;4.450;2023-11-18T04:56:13;14.86;;;14.84;;
70450;SDS011;58869;51.982;4.450;2023-11-18T04:58:41;15.39;;;15.38;;
70450;SDS011;58869;51.982;4.450;2023-11-18T05:01:07;15.07;;;15.06;;
70450;SDS011;58869;51.982;4.450;2023-11-18T05:03:34;15.21;;;15.21;;
70450;SDS011;58869;51.982;4.450;2023-11-18T05:06:00;15.00;;;14.99;;
70450;SDS011;58869;51.982;4.450;2023-11-18T05:08:25;14.72;;;14.71;;
70450;SDS011;58869;51.982;4.450;2023-11-18T05:10:51;14.81;;;14.81;;
70450;SDS011;58869;51.982;4.450;2023-11-18T05:13:19;14.18;;;14.17;;
70450;SDS011;58869;51.982;4.450;2023-11-18T05:15:45;14.16;;;14.15;;
70450;SDS011;58869;51.982;4.450;2023-11-18T05:18:12;13.92;;;13.92;;
70450;SDS011;58869;51.982;4.450;2023-11-18T05:20:43;14.17;;;14.14;;
70450;SDS011;58869;51.982;4.450;2023-11-18T05:23:09;13.54;;;13.53;;
70450;SDS011;58869;51.982;4.450;2023-11-18T05:25:40;13.43;;;13.43;;
70450;SDS011;58869;51.982;4.450;2023-11-18T05:28:07;13.88;;;13.83;;
70450;SDS011;58869;51.982;4.450;2023-11-18T05:30:34;13.14;;;13.14;;
70450;SDS011;58869;51.982;4.450;2023-11-18T05:33:02;13.05;;;13.05;;
70450;SDS011;58869;51.982;4.450;2023-11-18T05:35:31;13.17;;;13.17;;
70450;SDS011;58869;51.982;4.450;2023-11-18T05:37:58;13.07;;;13.07;;
70450;SDS011;58869;51.982;4.450;2023-11-18T05:40:25;13.15;;;13.14;;
70450;SDS011;58869;51.982;4.450;2023-11-18T05:42:51;13.04;;;13.04;;
70450;SDS011;58869;51.982;4.450;2023-11-18T05:45:18;13.15;;;13.15;;
70450;SDS011;58869;51.982;4.450;2023-11-18T05:47:53;12.77;;;12.77;;
70450;SDS011;58869;51.982;4.450;2023-11-18T05:50:20;13.00;;;12.98;;
70450;SDS011;58869;51.982;4.450;2023-11-18T05:52:46;12.50;;;12.50;;
70450;SDS011;58869;51.982;4.450;2023-11-18T05:55:11;12.33;;;12.33;;
70450;SDS011;58869;51.982;4.450;2023-11-18T05:57:37;12.62;;;12.61;;
70450;SDS011;58869;51.982;4.450;2023-11-18T06:00:02;12.72;;;12.71;;
70450;SDS011;58869;51.982;4.450;2023-11-18T06:02:30;11.98;;;11.97;;
70450;SDS011;58869;51.982;4.450;2023-11-18T06:04:56;11.76;;;11.76;;
70450;SDS011;58869;51.982;4.450;2023-11-18T06:07:22;12.25;;;12.24;;
70450;SDS011;58869;51.982;4.450;2023-11-18T06:09:48;11.87;;;11.85;;
70450;SDS011;58869;51.982;4.450;2023-11-18T06:12:13;12.34;;;12.31;;
70450;SDS011;58869;51.982;4.450;2023-11-18T06:14:39;13.13;;;13.12;;
70450;SDS011;58869;51.982;4.450;2023-11-18T06:17:06;13.44;;;13.40;;
70450;SDS011;58869;51.982;4.450;2023-11-18T06:19:33;14.20;;;14.17;;
70450;SDS011;58869;51.982;4.450;2023-11-18T06:21:59;14.03;;;14.03;;
70450;SDS011;58869;51.982;4.450;2023-11-18T06:24:25;15.08;;;15.08;;
70450;SDS011;58869;51.982;4.450;2023-11-18T06:26:51;14.44;;;14.42;;
70450;SDS011;58869;51.982;4.450;2023-11-18T06:29:17;15.04;;;15.00;;
70450;SDS011;58869;51.982;4.450;2023-11-18T06:31:42;15.28;;;15.24;;
70450;SDS011;58869;51.982;4.450;2023-11-18T06:34:08;15.59;;;15.54;;
70450;SDS011;58869;51.982;4.450;2023-11-18T06:36:34;15.33;;;15.30;;
70450;SDS011;58869;51.982;4.450;2023-11-18T06:39:00;15.59;;;15.59;;
70450;SDS011;58869;51.982;4.450;2023-11-18T06:41:26;14.91;;;14.91;;
70450;SDS011;58869;51.982;4.450;2023-11-18T06:43:58;14.72;;;14.72;;
70450;SDS011;58869;51.982;4.450;2023-11-18T06:46:31;14.62;;;14.58;;
70450;SDS011;58869;51.982;4.450;2023-11-18T06:48:59;13.88;;;13.84;;
70450;SDS011;58869;51.982;4.450;2023-11-18T06:51:30;13.12;;;13.11;;
70450;SDS011;58869;51.982;4.450;2023-11-18T06:53:58;13.06;;;12.98;;
70450;SDS011;58869;51.982;4.450;2023-11-18T06:56:24;12.64;;;12.58;;
70450;SDS011;58869;51.982;4.450;2023-11-18T06:58:50;12.76;;;12.72;;
70450;SDS011;58869;51.982;4.450;2023-11-18T07:01:15;12.94;;;12.93;;
70450;SDS011;58869;51.982;4.450;2023-11-18T07:03:41;13.13;;;13.08;;
70450;SDS011;58869;51.982;4.450;2023-11-18T07:09:37;13.86;;;13.83;;
70450;SDS011;58869;51.982;4.450;2023-11-18T07:12:03;13.31;;;13.27;;
70450;SDS011;58869;51.982;4.450;2023-11-18T07:14:28;13.64;;;13.59;;
70450;SDS011;58869;51.982;4.450;2023-11-18T07:16:54;14.26;;;14.22;;
70450;SDS011;58869;51.982;4.450;2023-11-18T07:19:20;13.48;;;13.44;;
70450;SDS011;58869;51.982;4.450;2023-11-18T07:21:49;13.57;;;13.54;;
70450;SDS011;58869;51.982;4.450;2023-11-18T07:24:15;13.13;;;13.10;;
70450;SDS011;58869;51.982;4.450;2023-11-18T07:26:42;13.17;;;13.14;;
70450;SDS011;58869;51.982;4.450;2023-11-18T07:29:09;13.41;;;13.39;;
70450;SDS011;58869;51.982;4.450;2023-11-18T07:31:34;12.03;;;12.02;;
70450;SDS011;58869;51.982;4.450;2023-11-18T07:34:05;12.24;;;12.20;;
70450;SDS011;58869;51.982;4.450;2023-11-18T07:36:31;12.02;;;11.98;;
70450;SDS011;58869;51.982;4.450;2023-11-18T07:38:58;11.82;;;11.78;;
70450;SDS011;58869;51.982;4.450;2023-11-18T07:41:26;11.50;;;11.43;;
70450;SDS011;58869;51.982;4.450;2023-11-18T07:43:52;10.99;;;10.97;;
70450;SDS011;58869;51.982;4.450;2023-11-18T07:46:21;11.26;;;11.21;;
70450;SDS011;58869;51.982;4.450;2023-11-18T07:48:50;10.48;;;10.47;;
70450;SDS011;58869;51.982;4.450;2023-11-18T07:51:21;10.34;;;10.30;;
70450;SDS011;58869;51.982;4.450;2023-11-18T07:53:50;10.16;;;10.15;;
70450;SDS011;58869;51.982;4.450;2023-11-18T07:56:16;10.02;;;10.02;;
70450;SDS011;58869;51.982;4.450;2023-11-18T07:58:42;9.55;;;9.55;;
70450;SDS011;58869;51.982;4.450;2023-11-18T08:01:11;9.99;;;9.95;;
70450;SDS011;58869;51.982;4.450;2023-11-18T08:03:36;9.86;;;9.77;;
70450;SDS011;58869;51.982;4.450;2023-11-18T08:06:03;9.96;;;9.88;;
70450;SDS011;58869;51.982;4.450;2023-11-18T08:08:32;8.97;;;8.93;;
70450;SDS011;58869;51.982;4.450;2023-11-18T08:10:58;9.45;;;9.39;;
70450;SDS011;58869;51.982;4.450;2023-11-18T08:13:25;9.67;;;9.60;;
70450;SDS011;58869;51.982;4.450;2023-11-18T08:15:51;9.01;;;8.99;;
70450;SDS011;58869;51.982;4.450;2023-11-18T08:18:17;8.54;;;8.49;;
70450;SDS011;58869;51.982;4.450;2023-11-18T08:20:43;8.69;;;8.66;;
70450;SDS011;58869;51.982;4.450;2023-11-18T08:23:10;9.08;;;9.06;;
70450;SDS011;58869;51.982;4.450;2023-11-18T08:25:35;8.48;;;8.40;;
70450;SDS011;58869;51.982;4.450;2023-11-18T08:28:01;8.26;;;8.16;;
70450;SDS011;58869;51.982;4.450;2023-11-18T08:30:28;8.12;;;8.02;;
70450;SDS011;58869;51.982;4.450;2023-11-18T08:32:54;8.14;;;8.02;;
70450;SDS011;58869;51.982;4.450;2023-11-18T08:35:19;8.36;;;8.28;;
70450;SDS011;58869;51.982;4.450;2023-11-18T08:37:47;8.30;;;8.19;;
70450;SDS011;58869;51.982;4.450;2023-11-18T08:40:13;9.01;;;8.82;;
70450;SDS011;58869;51.982;4.450;2023-11-18T08:42:50;8.71;;;8.52;;
70450;SDS011;58869;51.982;4.450;2023-11-18T08:45:17;8.72;;;8.63;;
70450;SDS011;58869;51.982;4.450;2023-11-18T08:47:48;8.27;;;8.26;;
70450;SDS011;58869;51.982;4.450;2023-11-18T08:50:14;9.09;;;9.03;;
70450;SDS011;58869;51.982;4.450;2023-11-18T08:52:44;9.70;;;9.63;;
70450;SDS011;58869;51.982;4.450;2023-11-18T08:55:15;9.01;;;8.89;;
70450;SDS011;58869;51.982;4.450;2023-11-18T08:58:00;9.84;;;9.76;;
70450;SDS011;58869;51.982;4.450;2023-11-18T09:00:29;9.79;;;9.76;;
70450;SDS011;58869;51.982;4.450;2023-11-18T09:03:08;10.15;;;10.14;;
70450;SDS011;58869;51.982;4.450;2023-11-18T09:05:33;10.22;;;10.20;;
70450;SDS011;58869;51.982;4.450;2023-11-18T09:08:01;10.76;;;10.68;;
70450;SDS011;58869;51.982;4.450;2023-11-18T09:10:31;11.13;;;11.05;;
70450;SDS011;58869;51.982;4.450;2023-11-18T09:12:56;10.18;;;10.15;;
70450;SDS011;58869;51.982;4.450;2023-11-18T09:15:22;9.95;;;9.90;;
70450;SDS011;58869;51.982;4.450;2023-11-18T09:17:48;10.20;;;10.11;;
70450;SDS011;58869;51.982;4.450;2023-11-18T09:20:14;9.88;;;9.82;;
70450;SDS011;58869;51.982;4.450;2023-11-18T09:22:44;9.10;;;9.07;;
70450;SDS011;58869;51.982;4.450;2023-11-18T09:25:10;8.81;;;8.78;;
70450;SDS011;58869;51.982;4.450;2023-11-18T09:27:38;8.41;;;8.38;;
70450;SDS011;58869;51.982;4.450;2023-11-18T09:30:05;8.22;;;8.20;;
70450;SDS011;58869;51.982;4.450;2023-11-18T09:32:42;8.32;;;8.24;;
70450;SDS011;58869;51.982;4.450;2023-11-18T09:35:08;7.42;;;7.30;;
70450;SDS011;58869;51.982;4.450;2023-11-18T09:37:35;6.95;;;6.85;;
70450;SDS011;58869;51.982;4.450;2023-11-18T09:40:02;7.00;;;6.92;;
70450;SDS011;58869;51.982;4.450;2023-11-18T09:42:36;7.01;;;6.90;;
70450;SDS011;58869;51.982;4.450;2023-11-18T09:45:04;6.44;;;6.35;;
70450;SDS011;58869;51.982;4.450;2023-11-18T09:47:39;6.55;;;6.46;;
70450;SDS011;58869;51.982;4.450;2023-11-18T09:50:08;7.00;;;6.95;;
70450;SDS011;58869;51.982;4.450;2023-11-18T09:52:47;6.86;;;6.84;;
70450;SDS011;58869;51.982;4.450;2023-11-18T09:55:28;7.98;;;7.97;;
70450;SDS011;58869;51.982;4.450;2023-11-18T09:58:06;6.73;;;6.72;;
70450;SDS011;58869;51.982;4.450;2023-11-18T10:00:40;6.05;;;5.97;;
70450;SDS011;58869;51.982;4.450;2023-11-18T10:03:09;6.66;;;6.60;;
70450;SDS011;58869;51.982;4.450;2023-11-18T10:05:41;6.18;;;6.11;;
70450;SDS011;58869;51.982;4.450;2023-11-18T10:08:07;6.37;;;6.36;;
70450;SDS011;58869;51.982;4.450;2023-11-18T10:10:33;6.16;;;6.07;;
70450;SDS011;58869;51.982;4.450;2023-11-18T10:13:02;6.38;;;6.29;;
70450;SDS011;58869;51.982;4.450;2023-11-18T10:15:51;5.03;;;4.97;;
70450;SDS011;58869;51.982;4.450;2023-11-18T10:18:17;5.31;;;5.26;;
70450;SDS011;58869;51.982;4.450;2023-11-18T10:20:48;5.40;;;5.33;;
70450;SDS011;58869;51.982;4.450;2023-11-18T10:23:19;5.39;;;5.29;;
70450;SDS011;58869;51.982;4.450;2023-11-18T10:28:27;5.03;;;4.95;;
70450;SDS011;58869;51.982;4.450;2023-11-18T10:30:59;4.86;;;4.78;;
70450;SDS011;58869;51.982;4.450;2023-11-18T10:33:32;5.26;;;5.13;;
70450;SDS011;58869;51.982;4.450;2023-11-18T10:36:07;5.38;;;5.28;;
70450;SDS011;58869;51.982;4.450;2023-11-18T10:38:47;5.27;;;5.23;;
70450;SDS011;58869;51.982;4.450;2023-11-18T10:41:15;5.39;;;5.35;;
70450;SDS011;58869;51.982;4.450;2023-11-18T10:43:42;5.30;;;5.21;;
70450;SDS011;58869;51.982;4.450;2023-11-18T10:46:10;5.43;;;5.25;;
70450;SDS011;58869;51.982;4.450;2023-11-18T10:48:39;5.26;;;5.13;;
70450;SDS011;58869;51.982;4.450;2023-11-18T10:51:09;5.31;;;5.27;;
70450;SDS011;58869;51.982;4.450;2023-11-18T10:53:36;5.38;;;5.36;;
70450;SDS011;58869;51.982;4.450;2023-11-18T10:56:04;5.40;;;5.39;;
70450;SDS011;58869;51.982;4.450;2023-11-18T10:58:37;5.62;;;5.61;;
70450;SDS011;58869;51.982;4.450;2023-11-18T11:01:06;6.01;;;5.99;;
70450;SDS011;58869;51.982;4.450;2023-11-18T11:03:54;6.48;;;6.47;;
70450;SDS011;58869;51.982;4.450;2023-11-18T11:06:27;6.76;;;6.74;;
70450;SDS011;58869;51.982;4.450;2023-11-18T11:08:56;6.56;;;6.54;;
70450;SDS011;58869;51.982;4.450;2023-11-18T11:11:25;6.58;;;6.57;;
70450;SDS011;58869;51.982;4.450;2023-11-18T11:14:02;5.74;;;5.74;;
70450;SDS011;58869;51.982;4.450;2023-11-18T11:16:40;5.69;;;5.69;;
70450;SDS011;58869;51.982;4.450;2023-11-18T11:19:17;5.47;;;5.47;;
70450;SDS011;58869;51.982;4.450;2023-11-18T11:22:10;5.77;;;5.77;;
70450;SDS011;58869;51.982;4.450;2023-11-18T11:27:40;5.53;;;5.53;;
70450;SDS011;58869;51.982;4.450;2023-11-18T11:30:17;5.59;;;5.56;;
70450;SDS011;58869;51.982;4.450;2023-11-18T11:32:51;5.41;;;5.41;;
70450;SDS011;58869;51.982;4.450;2023-11-18T11:35:22;5.82;;;5.82;;
70450;SDS011;58869;51.982;4.450;2023-11-18T11:37:50;5.47;;;5.47;;
70450;SDS011;58869;51.982;4.450;2023-11-18T11:40:18;5.31;;;5.31;;
70450;SDS011;58869;51.982;4.450;2023-11-18T11:42:48;5.17;;;5.17;;
70450;SDS011;58869;51.982;4.450;2023-11-18T11:45:21;5.08;;;5.08;;
70450;SDS011;58869;51.982;4.450;2023-11-18T11:47:56;4.98;;;4.98;;
70450;SDS011;58869;51.982;4.450;2023-11-18T11:50:43;4.68;;;4.68;;
70450;SDS011;58869;51.982;4.450;2023-11-18T11:53:15;4.53;;;4.53;;
70450;SDS011;58869;51.982;4.450;2023-11-18T11:55:49;4.60;;;4.60;;
70450;SDS011;58869;51.982;4.450;2023-11-18T11:58:31;4.17;;;4.17;;
70450;SDS011;58869;51.982;4.450;2023-11-18T12:00:59;4.15;;;4.15;;
70450;SDS011;58869;51.982;4.450;2023-11-18T12:03:26;4.28;;;4.28;;
70450;SDS011;58869;51.982;4.450;2023-11-18T12:06:01;4.18;;;4.18;;
70450;SDS011;58869;51.982;4.450;2023-11-18T12:08:34;4.07;;;4.07;;
70450;SDS011;58869;51.982;4.450;2023-11-18T12:11:01;3.84;;;3.84;;
70450;SDS011;58869;51.982;4.450;2023-11-18T12:13:27;3.87;;;3.87;;
70450;SDS011;58869;51.982;4.450;2023-11-18T12:18:29;3.34;;;3.34;;
70450;SDS011;58869;51.982;4.450;2023-11-18T12:20:57;3.42;;;3.42;;
70450;SDS011;58869;51.982;4.450;2023-11-18T12:23:27;3.35;;;3.34;;
70450;SDS011;58869;51.982;4.450;2023-11-18T12:25:53;3.15;;;3.15;;
70450;SDS011;58869;51.982;4.450;2023-11-18T12:28:20;3.57;;;3.57;;
70450;SDS011;58869;51.982;4.450;2023-11-18T12:30:52;3.53;;;3.53;;
70450;SDS011;58869;51.982;4.450;2023-11-18T12:33:25;3.12;;;3.12;;
70450;SDS011;58869;51.982;4.450;2023-11-18T12:36:04;2.95;;;2.95;;
70450;SDS011;58869;51.982;4.450;2023-11-18T12:41:34;3.12;;;3.12;;
70450;SDS011;58869;51.982;4.450;2023-11-18T12:47:11;2.54;;;2.54;;
70450;SDS011;58869;51.982;4.450;2023-11-18T12:49:46;2.65;;;2.65;;
70450;SDS011;58869;51.982;4.450;2023-11-18T12:52:20;3.12;;;3.12;;
70450;SDS011;58869;51.982;4.450;2023-11-18T12:54:48;3.03;;;3.03;;
70450;SDS011;58869;51.982;4.450;2023-11-18T12:57:20;2.93;;;2.93;;
70450;SDS011;58869;51.982;4.450;2023-11-18T12:59:48;2.73;;;2.73;;
70450;SDS011;58869;51.982;4.450;2023-11-18T13:02:15;2.62;;;2.62;;
70450;SDS011;58869;51.982;4.450;2023-11-18T13:04:48;2.19;;;2.19;;
70450;SDS011;58869;51.982;4.450;2023-11-18T13:07:17;2.28;;;2.28;;
70450;SDS011;58869;51.982;4.450;2023-11-18T13:09:47;2.16;;;2.16;;
70450;SDS011;58869;51.982;4.450;2023-11-18T13:12:13;2.37;;;2.37;;
70450;SDS011;58869;51.982;4.450;2023-11-18T13:14:43;2.24;;;2.24;;
70450;SDS011;58869;51.982;4.450;2023-11-18T13:17:14;2.19;;;2.19;;
70450;SDS011;58869;51.982;4.450;2023-11-18T13:19:41;2.12;;;2.12;;
70450;SDS011;58869;51.982;4.450;2023-11-18T13:22:09;2.30;;;2.30;;
70450;SDS011;58869;51.982;4.450;2023-11-18T13:24:37;2.55;;;2.55;;
70450;SDS011;58869;51.982;4.450;2023-11-18T13:27:06;2.36;;;2.36;;
70450;SDS011;58869;51.982;4.450;2023-11-18T13:29:37;2.05;;;2.05;;
70450;SDS011;58869;51.982;4.450;2023-11-18T13:32:06;1.93;;;1.93;;
70450;SDS011;58869;51.982;4.450;2023-11-18T13:34:35;2.00;;;2.00;;
70450;SDS011;58869;51.982;4.450;2023-11-18T13:37:03;2.08;;;2.08;;
70450;SDS011;58869;51.982;4.450;2023-11-18T13:39:31;2.03;;;2.03;;
70450;SDS011;58869;51.982;4.450;2023-11-18T13:45:04;1.97;;;1.97;;
70450;SDS011;58869;51.982;4.450;2023-11-18T13:47:33;1.96;;;1.96;;
70450;SDS011;58869;51.982;4.450;2023-11-18T13:49:58;1.88;;;1.88;;
70450;SDS011;58869;51.982;4.450;2023-11-18T13:52:24;2.03;;;2.03;;
70450;SDS011;58869;51.982;4.450;2023-11-18T13:54:50;2.06;;;2.06;;
70450;SDS011;58869;51.982;4.450;2023-11-18T13:57:20;1.92;;;1.92;;
70450;SDS011;58869;51.982;4.450;2023-11-18T13:59:49;1.85;;;1.85;;
70450;SDS011;58869;51.982;4.450;2023-11-18T14:02:15;1.84;;;1.84;;
70450;SDS011;58869;51.982;4.450;2023-11-18T14:04:42;1.76;;;1.76;;
70450;SDS011;58869;51.982;4.450;2023-11-18T14:07:13;1.75;;;1.75;;
70450;SDS011;58869;51.982;4.450;2023-11-18T14:09:42;1.65;;;1.65;;
70450;SDS011;58869;51.982;4.450;2023-11-18T14:12:10;1.74;;;1.74;;
70450;SDS011;58869;51.982;4.450;2023-11-18T14:14:37;1.83;;;1.83;;
70450;SDS011;58869;51.982;4.450;2023-11-18T14:17:03;1.66;;;1.66;;
70450;SDS011;58869;51.982;4.450;2023-11-18T14:19:31;1.62;;;1.62;;
70450;SDS011;58869;51.982;4.450;2023-11-18T14:21:57;1.51;;;1.51;;
70450;SDS011;58869;51.982;4.450;2023-11-18T14:24:22;1.39;;;1.39;;
70450;SDS011;58869;51.982;4.450;2023-11-18T14:26:48;1.65;;;1.65;;
70450;SDS011;58869;51.982;4.450;2023-11-18T14:29:15;1.58;;;1.58;;
70450;SDS011;58869;51.982;4.450;2023-11-18T14:31:41;1.62;;;1.62;;
70450;SDS011;58869;51.982;4.450;2023-11-18T14:34:07;1.58;;;1.58;;
70450;SDS011;58869;51.982;4.450;2023-11-18T14:36:36;1.96;;;1.96;;
70450;SDS011;58869;51.982;4.450;2023-11-18T14:39:02;1.84;;;1.84;;
70450;SDS011;58869;51.982;4.450;2023-11-18T14:41:28;2.14;;;2.14;;
70450;SDS011;58869;51.982;4.450;2023-11-18T14:43:56;2.00;;;2.00;;
70450;SDS011;58869;51.982;4.450;2023-11-18T14:46:22;2.01;;;2.01;;
70450;SDS011;58869;51.982;4.450;2023-11-18T14:48:48;2.12;;;2.12;;
70450;SDS011;58869;51.982;4.450;2023-11-18T14:51:15;2.15;;;2.15;;
70450;SDS011;58869;51.982;4.450;2023-11-18T14:53:41;2.63;;;2.63;;
70450;SDS011;58869;51.982;4.450;2023-11-18T14:56:08;2.73;;;2.73;;
70450;SDS011;58869;51.982;4.450;2023-11-18T14:58:34;2.78;;;2.78;;
70450;SDS011;58869;51.982;4.450;2023-11-18T15:01:00;2.79;;;2.79;;
70450;SDS011;58869;51.982;4.450;2023-11-18T15:03:26;2.74;;;2.74;;
70450;SDS011;58869;51.982;4.450;2023-11-18T15:05:52;2.48;;;2.48;;
70450;SDS011;58869;51.982;4.450;2023-11-18T15:08:18;2.42;;;2.42;;
70450;SDS011;58869;51.982;4.450;2023-11-18T15:10:43;1.82;;;1.82;;
70450;SDS011;58869;51.982;4.450;2023-11-18T15:13:10;2.09;;;2.09;;
70450;SDS011;58869;51.982;4.450;2023-11-18T15:15:42;2.27;;;2.27;;
70450;SDS011;58869;51.982;4.450;2023-11-18T15:18:12;2.40;;;2.40;;
70450;SDS011;58869;51.982;4.450;2023-11-18T15:20:39;2.21;;;2.21;;
70450;SDS011;58869;51.982;4.450;2023-11-18T15:23:11;1.68;;;1.68;;
70450;SDS011;58869;51.982;4.450;2023-11-18T15:25:38;1.82;;;1.82;;
70450;SDS011;58869;51.982;4.450;2023-11-18T15:28:04;1.83;;;1.83;;
70450;SDS011;58869;51.982;4.450;2023-11-18T15:30:40;1.75;;;1.75;;
70450;SDS011;58869;51.982;4.450;2023-11-18T15:33:06;1.67;;;1.67;;
70450;SDS011;58869;51.982;4.450;2023-11-18T15:35:35;1.72;;;1.72;;
70450;SDS011;58869;51.982;4.450;2023-11-18T15:38:06;1.67;;;1.67;;
70450;SDS011;58869;51.982;4.450;2023-11-18T15:40:35;1.60;;;1.60;;
70450;SDS011;58869;51.982;4.450;2023-11-18T15:43:02;1.57;;;1.57;;
70450;SDS011;58869;51.982;4.450;2023-11-18T15:45:31;1.62;;;1.62;;
70450;SDS011;58869;51.982;4.450;2023-11-18T15:47:57;1.77;;;1.77;;
70450;SDS011;58869;51.982;4.450;2023-11-18T15:50:24;1.73;;;1.73;;
70450;SDS011;58869;51.982;4.450;2023-11-18T15:52:50;1.66;;;1.66;;